Terminal Aerodrome Forecast
Issued by NWS

Home | Current Version | Previous Version | Graphics & Text | Print | Product List | Glossary On
Versions: 1 2 3 4 5 6 7 8 9 10 11 12 13 14 15 16 17 18 19 20 21 22
000
FTUS43 KTOP 250200 AAB
TAFMHK
TAF AMD
KMHK 250220Z 2502/2524 16008KT P6SM VCTS BKN100CB
      TEMPO 2503/2504 4SM TSRA BKN060CB
     FM250400 18010KT P6SM SCT100=

USA.gov is the U.S. government's official web portal to all federal, state and local government web resources and services.